Impacts METAR Board
IDs:

KLAS - Las Vegas/McCarran I, NV, US

Updated at: 0100 UTC 24 Jun 2018
Potential Impact None Slight Moderate High
Time 23/13Z 23/14Z 23/15Z 23/16Z 23/17Z 23/18Z 23/19Z 23/20Z 23/21Z 23/22Z 23/23Z 24/00Z 24/01Z
Temp86 86 89 91 94 97 100 106 108 109 109 110 108
Dewpt16 23 25 28 28 29 30 31 31 27 22 20 23
Altim29.72 29.73 29.75 29.76 29.75 29.75 29.72 29.70 29.68 29.67 29.66 29.64 29.64
VIS10 10 10 10 10 10 10 10 10 10 10 10 10
CIG-- -- -- -- -- -- -- -- -- -- -- -- --
CoverFEWFEWFEWFEWCLRCLRCLRCLRCLRCLRCLRCLRCLR
FltCatVFRVFRVFRVFRVFRVFRVFRVFRVFRVFRVFRVFRVFR
WX--------------------------
WDir000000602200270220240210
WSpd0 0 0 0 0 0 5 11 3 9 11 12 16
WGst-- -- -- -- -- -- -- 20 -- 18 18 21 23
Raw hourly METARs
KLAS 231256Z 00000KT 10SM FEW250 30/M09 A2972 RMK AO2 SLP029 T03001089
KLAS 231356Z 00000KT 10SM FEW250 30/M05 A2973 RMK AO2 SLP034 T03001050
KLAS 231456Z 00000KT 10SM FEW250 32/M04 A2975 RMK AO2 SLP040 T03171039 51017
KLAS 231556Z 00000KT 10SM FEW250 33/M02 A2976 RMK AO2 SLP044 T03281022
KLAS 231656Z 00000KT 10SM CLR 35/M02 A2975 RMK AO2 SLP041 T03441022
KLAS 231756Z 00000KT 10SM CLR 36/M02 A2975 RMK AO2 SLP039 T03611017 10361 20300 58001
KLAS 231856Z 06005KT 10SM CLR 38/M01 A2972 RMK AO2 SLP029 T03781011
KLAS 231956Z 22011G20KT 10SM CLR 41/M00 A2970 RMK AO2 SLP022 T04111006
KLAS 232056Z VRB03KT 10SM CLR 42/M00 A2968 RMK AO2 SLP015 T04221006 56021
KLAS 232156Z 27009G18KT 10SM CLR 43/M03 A2967 RMK AO2 SLP011 T04281028
KLAS 232256Z 22011G18KT 10SM CLR 43/M05 A2966 RMK AO2 SLP008 T04281056
KLAS 232356Z 24012G21KT 10SM CLR 43/M07 A2964 RMK AO2 SLP002 T04331067 58013
KLAS 240056Z 21016G23KT 10SM CLR 42/M05 A2964 RMK AO2 SLP001 T04221050



Page loaded:  01:00 UTC  |   06:00 PM Pacific  |   07:00 PM Mountain  |   08:00 PM Central  |   09:00 PM Eastern

 

ADVISORIES

FORECASTS

FORECASTS

OBSERVATIONS

USER TOOLS

ABOUT US